Main page
METAR-TAF:

METAR-TAF

Airports :

George Best Belfast City Airport

Belfast City, Northern Ireland

latitude: 54-36N, longitude: 005-53W, elevation: 5 m

Current weather observation

The report was made 29 minutes ago, at 00:50 UTC
Wind 13 kt from the South/Southwest
Temperature 3°C
Humidity 87%
Pressure 1009 hPa
Visibility 10 km or more

METAR: EGAC 180050Z AUTO 20013KT 9999 BKN017/// BKN030/// 03/01 Q1009

Time: 01:19 (01:19 UTC)

Forecast

The report was made 8 hours and 12 minutes ago, at 17:07 UTC
Forecast valid from 17 at 18 UTC to 17 at 22 UTC
Wind 15 kt from the West/Southwest
Visibility 10 km or more
Scattered clouds at a height of 3000 ft, Cumulonimbus.
Temporary
from 17 at 18 UTC to 17 at 22 UTC
Wind 18 kt from the West with gusts up to 30 kt
Visibility: 7000 m
rain showers
Probability 30% :
Temporary
from 17 at 18 UTC to 17 at 22 UTC
Visibility: 4000 m
rain showers, snow

TAF: EGAC 171707Z 1718/1722 24015KT 9999 SCT030CB TEMPO 1718/1722 26018G30KT 7000 SHRA PROB30 TEMPO 1718/1722 4000 SHRASN

Weather observations and forecasts of more than 4000 airports (METAR and TAF reports).

The available stations are represented by yellow and red dots on the map.

Hover mouse over dot to see the name of the station.

Then click to see weather observations and forecasts.

To change the map : click on the green buttons with a black cross to zoom in, on the green button with a dash to zoom out, or on the green arrows for adjacent maps.


METAR-TAF: